createdAt,value
2022-09-16T00:01:22.456Z,5.13
2022-09-16T00:03:50.993Z,5.97
2022-09-16T00:06:21.455Z,7.73
2022-09-16T00:08:50.386Z,6.73
2022-09-16T00:11:20.198Z,6.80
2022-09-16T00:13:48.596Z,5.53
2022-09-16T00:16:21.518Z,6.33
2022-09-16T00:18:50.459Z,5.93
2022-09-16T00:21:18.431Z,7.03
2022-09-16T00:23:46.520Z,6.43
2022-09-16T00:26:14.671Z,6.53
2022-09-16T00:28:44.486Z,6.67
2022-09-16T00:31:13.013Z,6.83
2022-09-16T00:33:40.979Z,6.60
2022-09-16T00:36:10.941Z,6.17
2022-09-16T00:38:40.299Z,7.27
2022-09-16T00:41:09.428Z,6.70
2022-09-16T00:43:55.853Z,6.90
2022-09-16T00:46:31.549Z,7.00
2022-09-16T00:49:03.458Z,7.20
2022-09-16T00:51:31.455Z,6.57
2022-09-16T00:54:04.791Z,6.77
2022-09-16T00:56:38.689Z,6.97
2022-09-16T00:59:11.283Z,6.83
2022-09-16T01:01:40.682Z,7.03
2022-09-16T01:04:15.240Z,6.40
2022-09-16T01:06:44.099Z,6.30
2022-09-16T01:09:12.282Z,6.63
2022-09-16T01:11:40.326Z,7.60
2022-09-16T01:14:27.743Z,8.40
2022-09-16T01:17:00.250Z,8.87
2022-09-16T01:19:53.073Z,6.53
2022-09-16T01:22:43.142Z,7.20
2022-09-16T01:25:27.249Z,7.20
2022-09-16T01:28:16.842Z,6.63
2022-09-16T01:31:09.403Z,6.17
2022-09-16T01:33:45.929Z,7.10
2022-09-16T01:36:27.284Z,6.83
2022-09-16T01:39:09.079Z,6.90
2022-09-16T01:42:06.419Z,8.57
2022-09-16T01:44:41.328Z,6.77
2022-09-16T01:47:22.266Z,6.57
2022-09-16T01:50:01.021Z,7.30
2022-09-16T01:52:40.798Z,5.70
2022-09-16T01:55:15.059Z,6.90
2022-09-16T01:57:52.355Z,6.90
2022-09-16T02:00:21.315Z,5.50
2022-09-16T02:02:57.624Z,6.43
2022-09-16T02:05:29.783Z,7.20
2022-09-16T02:08:03.196Z,7.20
2022-09-16T02:10:34.900Z,7.27
2022-09-16T02:13:09.419Z,8.00
2022-09-16T02:15:41.769Z,6.13
2022-09-16T02:18:14.374Z,7.57
2022-09-16T02:20:46.414Z,7.27
2022-09-16T02:23:17.824Z,7.40
2022-09-16T02:25:49.666Z,6.67
2022-09-16T02:28:21.726Z,7.40
2022-09-16T02:30:54.351Z,6.80
2022-09-16T02:33:26.452Z,6.47
2022-09-16T02:35:56.886Z,7.47
2022-09-16T02:38:28.374Z,7.50
2022-09-16T02:41:00.047Z,7.57
2022-09-16T02:43:30.056Z,7.57
2022-09-16T02:46:08.120Z,7.10
2022-09-16T02:48:48.419Z,7.90
2022-09-16T02:51:26.055Z,8.33
2022-09-16T02:53:58.230Z,8.17
2022-09-16T02:56:32.094Z,8.30
2022-09-16T02:59:01.717Z,8.60
2022-09-16T03:01:33.095Z,7.47
2022-09-16T03:04:02.490Z,7.77
2022-09-16T03:06:36.314Z,6.40
2022-09-16T03:09:07.349Z,7.87
2022-09-16T03:12:03.971Z,7.83
2022-09-16T03:15:03.527Z,7.20
2022-09-16T03:17:59.382Z,7.70
2022-09-16T03:20:37.469Z,7.30
2022-09-16T03:23:15.212Z,6.53
2022-09-16T03:25:49.996Z,6.30
2022-09-16T03:28:20.693Z,5.00
2022-09-16T03:30:56.497Z,5.77
2022-09-16T03:33:29.497Z,6.13
2022-09-16T03:36:01.853Z,5.53
2022-09-16T03:38:30.281Z,5.30
2022-09-16T03:40:58.545Z,4.80
2022-09-16T03:43:26.604Z,6.20
2022-09-16T03:45:54.378Z,5.93
2022-09-16T03:48:22.518Z,5.30
2022-09-16T03:50:50.314Z,4.93
2022-09-16T03:53:19.726Z,5.70
2022-09-16T03:55:49.847Z,5.30
2022-09-16T03:58:17.955Z,4.50
2022-09-16T04:00:50.817Z,5.10
2022-09-16T04:03:19.226Z,5.27
2022-09-16T04:05:47.384Z,4.80
2022-09-16T04:08:15.515Z,4.47
2022-09-16T04:10:54.026Z,5.57
2022-09-16T04:13:21.759Z,4.60
2022-09-16T04:15:49.519Z,4.93
2022-09-16T04:18:17.990Z,4.97
2022-09-16T04:20:47.106Z,4.57
2022-09-16T04:23:15.151Z,5.90
2022-09-16T04:25:44.154Z,4.60
2022-09-16T04:28:12.155Z,5.70
2022-09-16T04:30:39.980Z,5.37
2022-09-16T04:33:07.753Z,5.30
2022-09-16T04:35:35.446Z,4.83
2022-09-16T04:38:03.525Z,4.90
2022-09-16T04:40:31.216Z,5.10
2022-09-16T04:43:00.313Z,4.83
2022-09-16T04:45:28.042Z,6.50
2022-09-16T04:47:57.917Z,5.57
2022-09-16T04:50:25.723Z,6.50
2022-09-16T04:52:54.281Z,5.77
2022-09-16T04:55:24.083Z,5.20
2022-09-16T04:57:52.805Z,5.43
2022-09-16T05:00:22.064Z,4.90
2022-09-16T05:02:50.140Z,5.50
2022-09-16T05:05:18.296Z,4.93
2022-09-16T05:07:46.429Z,5.50
2022-09-16T05:10:14.214Z,5.30
2022-09-16T05:12:44.732Z,5.80
2022-09-16T05:15:15.819Z,4.97
2022-09-16T05:17:51.223Z,5.10
2022-09-16T05:20:19.521Z,5.33
2022-09-16T05:22:50.408Z,6.03
2022-09-16T05:25:18.526Z,6.70
2022-09-16T05:27:47.506Z,5.60
2022-09-16T05:30:17.378Z,5.03
2022-09-16T05:32:50.191Z,5.00
2022-09-16T05:35:18.121Z,7.20
2022-09-16T05:37:46.283Z,6.53
2022-09-16T05:40:14.717Z,6.07
2022-09-16T05:42:43.086Z,6.73
2022-09-16T05:45:11.807Z,5.90
2022-09-16T05:47:42.789Z,5.47
2022-09-16T05:50:12.111Z,5.60
2022-09-16T05:52:40.430Z,5.57
2022-09-16T05:55:09.612Z,5.73
2022-09-16T05:57:37.853Z,6.40
2022-09-16T06:00:07.175Z,5.73
2022-09-16T06:02:35.368Z,7.00
2022-09-16T06:05:03.366Z,5.30
2022-09-16T06:07:33.059Z,5.10
2022-09-16T06:10:01.377Z,5.67
2022-09-16T06:12:29.751Z,4.67
2022-09-16T06:14:57.551Z,5.20
2022-09-16T06:17:25.375Z,3.40
2022-09-16T06:19:53.284Z,4.00
2022-09-16T06:22:21.052Z,3.27
2022-09-16T06:24:50.483Z,4.50
2022-09-16T06:27:18.798Z,3.90
2022-09-16T06:29:46.717Z,3.50
2022-09-16T06:32:15.889Z,3.87
2022-09-16T06:34:44.190Z,3.57
2022-09-16T06:37:13.654Z,4.07
2022-09-16T06:39:42.775Z,3.60
2022-09-16T06:42:12.564Z,3.40
2022-09-16T06:44:40.339Z,2.43
2022-09-16T06:47:08.514Z,2.90
2022-09-16T06:49:36.505Z,3.30
2022-09-16T06:52:04.866Z,3.77
2022-09-16T06:54:32.620Z,2.30
2022-09-16T06:57:00.737Z,2.80
2022-09-16T06:59:29.955Z,3.50
2022-09-16T07:01:58.140Z,2.90
2022-09-16T07:04:26.035Z,2.00
2022-09-16T07:07:10.581Z,3.33
2022-09-16T07:09:38.612Z,2.37
2022-09-16T07:12:07.225Z,2.33
2022-09-16T07:14:36.363Z,2.40
2022-09-16T07:17:05.068Z,2.23
2022-09-16T07:19:32.799Z,2.30
2022-09-16T07:22:00.940Z,2.17
2022-09-16T07:24:28.913Z,1.90
2022-09-16T07:26:57.031Z,1.90
2022-09-16T07:29:24.848Z,2.60
2022-09-16T07:31:54.375Z,2.20
2022-09-16T07:34:22.401Z,1.50
2022-09-16T07:36:51.238Z,1.57
2022-09-16T07:39:21.150Z,1.60
2022-09-16T07:41:50.014Z,2.70
2022-09-16T07:44:19.411Z,2.03
2022-09-16T07:46:48.464Z,1.60
2022-09-16T07:49:19.113Z,1.80
2022-09-16T07:51:47.232Z,1.57
2022-09-16T07:54:17.437Z,1.83
2022-09-16T07:56:46.310Z,1.50
2022-09-16T07:59:18.694Z,1.30
2022-09-16T08:01:47.684Z,1.40
2022-09-16T08:04:17.378Z,1.30
2022-09-16T08:06:45.645Z,1.17
2022-09-16T08:09:37.394Z,1.30
2022-09-16T08:12:04.606Z,1.30
2022-09-16T08:14:33.209Z,1.40
2022-09-16T08:17:04.262Z,1.00
2022-09-16T08:19:33.316Z,0.90
2022-09-16T08:22:01.355Z,1.40
2022-09-16T08:24:29.031Z,1.20
2022-09-16T08:29:29.724Z,1.10
2022-09-16T08:31:57.831Z,1.10
2022-09-16T08:34:25.836Z,1.30
2022-09-16T08:36:55.328Z,1.10
2022-09-16T08:39:23.069Z,1.60
2022-09-16T08:42:19.899Z,1.07
2022-09-16T08:44:57.622Z,1.17
2022-09-16T08:47:36.594Z,1.13
2022-09-16T08:50:07.148Z,1.10
2022-09-16T08:52:38.882Z,0.93
2022-09-16T08:55:12.438Z,0.80
2022-09-16T08:57:43.948Z,1.40
2022-09-16T09:00:16.606Z,0.90
2022-09-16T09:02:52.293Z,0.90
2022-09-16T09:05:28.318Z,1.10
2022-09-16T09:08:11.620Z,1.17
2022-09-16T09:10:47.010Z,1.03
2022-09-16T09:13:32.149Z,1.40
2022-09-16T09:16:10.360Z,1.83
2022-09-16T09:18:44.694Z,1.47
2022-09-16T09:21:27.241Z,1.50
2022-09-16T09:24:18.383Z,1.37
2022-09-16T09:26:50.285Z,1.53
2022-09-16T09:29:33.884Z,1.47
2022-09-16T09:32:15.036Z,0.70
2022-09-16T09:35:06.437Z,1.10
2022-09-16T09:38:05.562Z,1.13
2022-09-16T09:40:40.697Z,1.23
2022-09-16T09:43:13.432Z,0.90
2022-09-16T09:45:49.462Z,1.27
2022-09-16T09:48:22.345Z,0.90
2022-09-16T09:50:51.765Z,1.33
2022-09-16T09:53:23.572Z,1.37
2022-09-16T09:56:06.254Z,1.40
2022-09-16T09:58:40.980Z,1.47
2022-09-16T10:01:11.586Z,1.00
2022-09-16T10:03:40.595Z,1.10
2022-09-16T10:06:08.941Z,1.47
2022-09-16T10:08:50.105Z,1.40
2022-09-16T10:11:21.976Z,1.47
2022-09-16T10:13:53.434Z,1.30
2022-09-16T10:16:23.534Z,1.60
2022-09-16T10:19:02.674Z,0.90
2022-09-16T10:21:46.174Z,1.30
2022-09-16T10:24:35.077Z,1.70
2022-09-16T10:27:21.692Z,1.10
2022-09-16T10:30:03.337Z,1.13
2022-09-16T10:32:32.081Z,1.20
2022-09-16T10:35:00.142Z,0.90
2022-09-16T10:37:30.383Z,1.20
2022-09-16T10:39:59.493Z,1.57
2022-09-16T10:42:41.043Z,1.40
2022-09-16T10:45:16.766Z,1.23
2022-09-16T10:47:51.582Z,1.00
2022-09-16T10:50:20.877Z,1.00
2022-09-16T10:52:50.120Z,1.10
2022-09-16T10:55:28.393Z,1.00
2022-09-16T10:58:08.856Z,1.00
2022-09-16T11:00:46.996Z,1.30
2022-09-16T11:03:43.294Z,1.37
2022-09-16T11:06:24.019Z,1.10
2022-09-16T11:09:03.125Z,1.50
2022-09-16T11:11:45.683Z,1.00
2022-09-16T11:14:24.679Z,0.90
2022-09-16T11:17:11.513Z,0.90
2022-09-16T11:19:51.036Z,1.30
2022-09-16T11:22:31.015Z,1.50
2022-09-16T11:25:25.990Z,0.90
2022-09-16T11:28:02.591Z,1.10
2022-09-16T11:30:39.067Z,1.30
2022-09-16T11:33:20.648Z,0.90
2022-09-16T11:36:24.865Z,1.00
2022-09-16T11:39:06.142Z,1.10
2022-09-16T11:41:41.312Z,1.33
2022-09-16T11:44:26.425Z,1.13
2022-09-16T11:47:08.146Z,1.00
2022-09-16T11:49:48.912Z,0.80
2022-09-16T11:52:33.899Z,1.13
2022-09-16T11:55:19.483Z,0.80
2022-09-16T11:57:53.839Z,1.00
2022-09-16T12:00:21.602Z,1.20
2022-09-16T12:02:59.752Z,1.17
2022-09-16T12:05:34.547Z,1.10
2022-09-16T12:08:11.029Z,1.00
2022-09-16T12:10:46.352Z,1.00
2022-09-16T12:13:18.338Z,1.10
2022-09-16T12:15:50.421Z,1.03
2022-09-16T12:18:23.647Z,1.03
2022-09-16T12:20:54.810Z,0.90
2022-09-16T12:23:25.751Z,1.50
2022-09-16T12:26:05.756Z,1.10
2022-09-16T12:28:39.145Z,1.00
2022-09-16T12:31:14.613Z,1.10
2022-09-16T12:33:50.404Z,1.23
2022-09-16T12:36:23.954Z,1.53
2022-09-16T12:38:52.383Z,1.43
2022-09-16T12:41:43.209Z,1.53
2022-09-16T12:44:44.765Z,1.23
2022-09-16T12:47:27.084Z,1.50
2022-09-16T12:50:16.049Z,1.43
2022-09-16T12:53:07.217Z,1.57
2022-09-16T12:56:02.718Z,2.20
2022-09-16T13:01:54.621Z,1.70
2022-09-16T13:04:31.094Z,3.80
2022-09-16T13:31:33.963Z,1.50
2022-09-16T13:34:16.493Z,1.30
2022-09-16T13:36:44.589Z,1.83
2022-09-16T13:39:14.619Z,1.40
2022-09-16T13:41:44.736Z,1.50
2022-09-16T13:44:31.869Z,1.53
2022-09-16T13:47:18.000Z,1.47
2022-09-16T13:49:51.718Z,1.50
2022-09-16T13:52:22.932Z,1.80
2022-09-16T13:55:10.111Z,1.23
2022-09-16T13:57:49.768Z,1.57
2022-09-16T14:00:22.299Z,1.03
2022-09-16T14:03:03.358Z,2.00
2022-09-16T14:05:45.135Z,1.37
2022-09-16T14:08:20.937Z,1.40
2022-09-16T14:10:57.944Z,1.13
2022-09-16T14:13:33.685Z,1.30
2022-09-16T14:16:01.686Z,1.07
2022-09-16T14:18:34.377Z,1.20
2022-09-16T14:21:05.495Z,1.10
2022-09-16T14:23:35.397Z,1.30
2022-09-16T14:26:11.841Z,1.13
2022-09-16T14:28:39.931Z,1.30
2022-09-16T14:31:09.908Z,1.70
2022-09-16T14:33:43.816Z,1.30
2022-09-16T14:36:15.923Z,1.40
2022-09-16T14:38:48.469Z,1.23
2022-09-16T14:41:24.055Z,1.10
2022-09-16T14:43:53.452Z,1.00
2022-09-16T14:46:21.369Z,1.30
2022-09-16T14:48:51.248Z,1.40
2022-09-16T14:51:25.156Z,1.73
2022-09-16T14:54:12.155Z,1.20
2022-09-16T14:56:41.127Z,1.00
2022-09-16T14:59:13.195Z,1.30
2022-09-16T15:01:41.998Z,1.33
2022-09-16T15:04:19.125Z,1.50
2022-09-16T15:06:52.760Z,1.30
2022-09-16T15:09:25.795Z,1.30
2022-09-16T15:11:58.135Z,2.03
2022-09-16T15:14:27.269Z,1.30
2022-09-16T15:16:59.890Z,1.43
2022-09-16T15:19:34.417Z,1.27
2022-09-16T15:22:03.381Z,1.30
2022-09-16T15:24:36.194Z,1.37
2022-09-16T15:27:04.966Z,2.20
2022-09-16T15:29:35.621Z,1.40
2022-09-16T15:32:21.652Z,1.90
2022-09-16T15:35:05.510Z,1.73
2022-09-16T15:37:34.910Z,2.07
2022-09-16T15:40:20.640Z,3.20
2022-09-16T15:42:49.480Z,1.90
2022-09-16T15:45:20.319Z,1.40
2022-09-16T15:47:57.637Z,1.17
2022-09-16T15:50:30.552Z,1.53
2022-09-16T15:53:03.187Z,1.30
2022-09-16T15:55:36.242Z,1.37
2022-09-16T15:58:11.881Z,1.60
2022-09-16T16:01:13.365Z,1.80
2022-09-16T16:03:53.197Z,1.93
2022-09-16T16:06:43.293Z,1.90
2022-09-16T16:09:35.287Z,2.10
2022-09-16T16:12:05.606Z,1.80
2022-09-16T16:14:34.257Z,2.47
2022-09-16T16:17:19.091Z,2.90
2022-09-16T16:19:49.726Z,2.73
2022-09-16T16:22:20.940Z,8.03
2022-09-16T16:24:48.910Z,4.90
2022-09-16T16:27:16.718Z,5.83
2022-09-16T16:29:44.490Z,6.23
2022-09-16T16:32:14.532Z,2.80
2022-09-16T16:34:43.872Z,2.83
2022-09-16T16:37:27.954Z,4.10
2022-09-16T16:40:03.253Z,2.60
2022-09-16T16:42:31.609Z,3.03
2022-09-16T16:44:59.530Z,2.97
2022-09-16T16:47:27.367Z,3.30
2022-09-16T16:49:55.626Z,3.50
2022-09-16T16:52:23.539Z,5.80
2022-09-16T16:54:52.066Z,4.70
2022-09-16T16:57:21.765Z,3.73
2022-09-16T16:59:49.471Z,3.40
2022-09-16T17:02:17.967Z,2.73
2022-09-16T17:04:45.854Z,3.57
2022-09-16T17:07:25.658Z,2.90
2022-09-16T17:09:54.746Z,2.50
2022-09-16T17:12:24.360Z,2.57
2022-09-16T17:14:52.215Z,3.30
2022-09-16T17:17:20.643Z,3.67
2022-09-16T17:19:48.502Z,3.13
2022-09-16T17:22:16.601Z,3.97
2022-09-16T17:24:44.468Z,4.53
2022-09-16T17:27:14.580Z,3.17
2022-09-16T17:29:43.756Z,3.57
2022-09-16T17:32:11.965Z,2.87
2022-09-16T17:34:41.487Z,3.70
2022-09-16T17:37:09.462Z,3.87
2022-09-16T17:39:38.363Z,3.90
2022-09-16T17:42:06.778Z,3.67
2022-09-16T17:44:34.735Z,4.00
2022-09-16T17:47:04.150Z,3.83
2022-09-16T17:49:32.869Z,4.23
2022-09-16T17:52:00.558Z,4.10
2022-09-16T17:54:28.557Z,3.57
2022-09-16T17:56:56.182Z,3.03
2022-09-16T17:59:26.065Z,2.80
2022-09-16T18:01:53.764Z,2.27
2022-09-16T18:04:23.236Z,2.80
2022-09-16T18:06:51.517Z,2.53
2022-09-16T18:09:19.502Z,1.87
2022-09-16T18:11:47.231Z,2.00
2022-09-16T18:14:17.299Z,2.10
2022-09-16T18:16:47.936Z,2.67
2022-09-16T18:19:16.127Z,1.87
2022-09-16T18:21:45.193Z,2.17
2022-09-16T18:24:13.808Z,2.00
2022-09-16T18:26:42.128Z,1.80
2022-09-16T18:29:12.082Z,1.90
2022-09-16T18:31:41.889Z,2.20
2022-09-16T18:34:10.021Z,2.60
2022-09-16T18:36:39.210Z,2.10
2022-09-16T18:39:12.165Z,2.43
2022-09-16T18:41:41.525Z,3.33
2022-09-16T18:44:14.792Z,3.20
2022-09-16T18:46:42.908Z,3.30
2022-09-16T18:49:13.755Z,3.40
2022-09-16T18:51:49.849Z,2.60
2022-09-16T18:54:24.864Z,2.73
2022-09-16T18:56:55.606Z,2.70
2022-09-16T18:59:26.878Z,2.73
2022-09-16T19:01:56.848Z,2.97
2022-09-16T19:04:27.218Z,2.63
2022-09-16T19:06:57.020Z,2.40
2022-09-16T19:09:26.450Z,2.73
2022-09-16T19:11:54.549Z,2.47
2022-09-16T19:14:24.853Z,3.00
2022-09-16T19:16:53.156Z,2.87
2022-09-16T19:19:21.726Z,2.20
2022-09-16T19:21:50.161Z,3.33
2022-09-16T19:24:19.641Z,3.43
2022-09-16T19:26:50.502Z,2.97
2022-09-16T19:29:19.515Z,2.80
2022-09-16T19:31:50.447Z,2.70
2022-09-16T19:34:18.727Z,3.07
2022-09-16T19:36:46.531Z,4.97
2022-09-16T19:39:15.055Z,4.60
2022-09-16T19:41:44.183Z,4.53
2022-09-16T19:44:15.616Z,4.80
2022-09-16T19:46:45.145Z,4.03
2022-09-16T19:49:18.237Z,3.60
2022-09-16T19:51:46.208Z,3.83
2022-09-16T19:54:13.925Z,4.60
2022-09-16T19:56:47.012Z,3.63
2022-09-16T19:59:19.713Z,3.83
2022-09-16T20:01:48.264Z,4.23
2022-09-16T20:04:19.422Z,5.30
2022-09-16T20:06:47.660Z,4.10
2022-09-16T20:09:15.341Z,4.33
2022-09-16T20:11:45.403Z,3.80
2022-09-16T20:14:16.215Z,4.57
2022-09-16T20:16:45.739Z,4.50
2022-09-16T20:19:16.173Z,4.40
2022-09-16T20:21:44.770Z,4.33
2022-09-16T20:24:15.762Z,4.37
2022-09-16T20:26:44.034Z,4.43
2022-09-16T20:29:11.985Z,5.13
2022-09-16T20:31:40.138Z,6.07
2022-09-16T20:34:11.948Z,4.90
2022-09-16T20:36:40.738Z,5.43
2022-09-16T20:39:09.327Z,5.00
2022-09-16T20:41:38.984Z,4.20
2022-09-16T20:44:07.115Z,3.60
2022-09-16T20:46:37.330Z,4.37
2022-09-16T20:49:09.395Z,4.27
2022-09-16T20:51:38.506Z,4.60
2022-09-16T20:54:08.721Z,5.00
2022-09-16T20:56:39.396Z,3.97
2022-09-16T20:59:08.476Z,3.80
2022-09-16T21:01:38.377Z,3.70
2022-09-16T21:04:08.087Z,3.70
2022-09-16T21:06:38.274Z,3.90
2022-09-16T21:09:11.424Z,3.57
2022-09-16T21:11:45.095Z,3.60
2022-09-16T21:14:16.035Z,4.13
2022-09-16T21:16:45.867Z,3.63
2022-09-16T21:19:14.044Z,3.20
2022-09-16T21:21:46.579Z,3.20
2022-09-16T21:24:14.535Z,3.93
2022-09-16T21:26:44.266Z,4.03
2022-09-16T21:29:13.740Z,3.37
2022-09-16T21:31:43.561Z,3.43
2022-09-16T21:34:13.886Z,3.40
2022-09-16T21:36:45.107Z,4.20
2022-09-16T21:39:13.713Z,3.90
2022-09-16T21:41:41.959Z,4.40
2022-09-16T21:44:09.867Z,4.03
2022-09-16T21:46:48.184Z,5.30
2022-09-16T21:49:22.410Z,4.50
2022-09-16T21:51:52.484Z,4.40
2022-09-16T21:54:20.835Z,3.40
2022-09-16T21:56:49.562Z,4.70
2022-09-16T21:59:17.585Z,3.77
2022-09-16T22:01:45.836Z,3.30
2022-09-16T22:04:15.558Z,3.17
2022-09-16T22:06:44.174Z,4.00
2022-09-16T22:09:13.606Z,3.80
2022-09-16T22:11:42.777Z,3.80
2022-09-16T22:14:12.446Z,3.70
2022-09-16T22:16:41.482Z,3.03
2022-09-16T22:19:11.214Z,3.67
2022-09-16T22:21:41.506Z,3.83
2022-09-16T22:24:10.172Z,3.33
2022-09-16T22:26:39.564Z,3.33
2022-09-16T22:29:09.387Z,3.80
2022-09-16T22:31:38.791Z,2.70
2022-09-16T22:34:07.032Z,2.60
2022-09-16T22:36:36.592Z,3.07
2022-09-16T22:39:07.142Z,3.33
2022-09-16T22:41:35.463Z,3.10
2022-09-16T22:44:05.558Z,3.93
2022-09-16T22:46:36.672Z,3.53
2022-09-16T22:49:05.290Z,3.53
2022-09-16T22:51:33.438Z,2.87
2022-09-16T22:54:01.181Z,4.30
2022-09-16T22:56:32.439Z,2.47
2022-09-16T22:59:02.116Z,3.40
2022-09-16T23:01:33.475Z,3.73
2022-09-16T23:04:03.290Z,4.03
2022-09-16T23:06:32.913Z,3.87
2022-09-16T23:09:01.042Z,3.80
2022-09-16T23:11:31.204Z,3.03
2022-09-16T23:14:00.203Z,4.50
2022-09-16T23:16:30.467Z,4.30
2022-09-16T23:19:01.993Z,3.43
2022-09-16T23:21:31.321Z,4.30
2022-09-16T23:24:05.230Z,4.70
2022-09-16T23:26:37.991Z,5.73
2022-09-16T23:29:08.012Z,5.20
2022-09-16T23:31:37.710Z,5.20
2022-09-16T23:34:08.615Z,4.87
2022-09-16T23:36:38.267Z,3.93
2022-09-16T23:39:07.424Z,4.67
2022-09-16T23:41:35.631Z,4.03
2022-09-16T23:44:03.615Z,4.83
2022-09-16T23:46:31.715Z,5.93
2022-09-16T23:49:00.001Z,5.40
2022-09-16T23:51:32.292Z,5.77
2022-09-16T23:54:00.637Z,5.67
2022-09-16T23:56:28.724Z,4.50
2022-09-16T23:59:00.513Z,5.70
